Time;durP1;ratioP1;P1;durP2;ratioP2;P2;SDS_P1;SDS_P2;PMS_P1;PMS_P2;Temp;Humidity;BMP_temperature;BMP_pressure;BME280_temperature;BME280_humidity;BME280_pressure;Samples;Min_cycle;Max_cycle;Signal;HPM_P1;HPM_P2
2023/05/19 00:01:46;;;;;;;0.00;0.00;;;10.30;99.10;;;;;;5090483;28;20187;-63
2023/05/19 00:04:13;;;;;;;0.00;0.00;;;10.30;99.10;;;;;;5089557;28;20655;-63
2023/05/19 00:06:40;;;;;;;0.00;0.00;;;10.30;99.30;;;;;;5088756;28;20216;-63
2023/05/19 00:09:08;;;;;;;0.00;0.00;;;10.30;99.30;;;;;;5093627;28;20176;-63
2023/05/19 00:11:35;;;;;;;0.00;0.00;;;10.30;99.50;;;;;;5094071;28;20354;-63
2023/05/19 00:14:01;;;;;;;0.00;0.00;;;10.30;99.60;;;;;;5093706;28;20233;-63
2023/05/19 00:16:28;;;;;;;0.10;0.10;;;10.20;99.60;;;;;;5093791;28;20651;-63
2023/05/19 00:18:55;;;;;;;0.00;0.00;;;10.20;99.60;;;;;;5093670;28;20671;-63
2023/05/19 00:21:21;;;;;;;0.00;0.00;;;10.20;99.70;;;;;;5093946;28;20176;-63
2023/05/19 00:23:46;;;;;;;0.00;0.00;;;10.20;99.80;;;;;;5093323;28;20186;-63
2023/05/19 00:26:12;;;;;;;0.00;0.00;;;10.20;99.90;;;;;;5093591;28;20303;-63
2023/05/19 00:28:38;;;;;;;0.00;0.00;;;10.20;99.90;;;;;;5093653;28;20205;-63
2023/05/19 00:31:07;;;;;;;0.00;0.00;;;10.20;99.90;;;;;;5092806;28;20518;-63
2023/05/19 00:33:33;;;;;;;0.00;0.00;;;10.20;99.90;;;;;;5093398;28;20198;-63
2023/05/19 00:36:01;;;;;;;0.00;0.00;;;10.20;99.90;;;;;;5093345;28;20643;-63
2023/05/19 00:38:27;;;;;;;0.00;0.00;;;10.20;99.90;;;;;;5092582;28;20183;-63
2023/05/19 00:40:53;;;;;;;0.00;0.00;;;10.20;99.90;;;;;;5093558;28;20189;-63
2023/05/19 00:43:18;;;;;;;0.00;0.00;;;10.10;99.90;;;;;;5092995;28;20199;-63
2023/05/19 00:45:45;;;;;;;0.00;0.00;;;10.10;99.90;;;;;;5093588;28;20670;-63
2023/05/19 00:48:11;;;;;;;0.00;0.00;;;10.10;99.90;;;;;;5092749;28;20590;-63
2023/05/19 00:50:37;;;;;;;0.00;0.00;;;10.10;99.90;;;;;;5093476;28;20272;-63
2023/05/19 00:53:02;;;;;;;0.00;0.00;;;10.00;99.90;;;;;;5092905;28;20199;-63
2023/05/19 00:55:30;;;;;;;0.00;0.00;;;10.00;99.90;;;;;;5099072;28;20265;-63
2023/05/19 00:57:56;;;;;;;0.00;0.00;;;10.00;99.90;;;;;;5092902;28;20691;-63
2023/05/19 01:00:23;;;;;;;0.00;0.00;;;9.90;99.90;;;;;;5093334;28;20262;-63
2023/05/19 01:02:52;;;;;;;0.00;0.00;;;9.90;99.90;;;;;;5091590;28;20183;-63
2023/05/19 01:05:18;;;;;;;0.00;0.00;;;9.90;99.90;;;;;;5092610;28;20735;-63
2023/05/19 01:07:45;;;;;;;0.00;0.00;;;9.90;99.90;;;;;;5092675;28;20202;-63
2023/05/19 01:10:11;;;;;;;0.00;0.00;;;9.90;99.90;;;;;;5092597;28;20678;-63
2023/05/19 01:12:37;;;;;;;0.00;0.00;;;9.80;99.90;;;;;;5093360;28;20184;-63
2023/05/19 01:15:04;;;;;;;0.00;0.00;;;9.80;99.90;;;;;;5092563;28;20243;-62
2023/05/19 01:17:43;;;;;;;0.00;0.00;;;9.80;99.90;;;;;;5092469;28;20268;-62
2023/05/19 01:20:37;;;;;;;0.00;0.00;;;9.80;99.90;;;;;;5090542;28;20556;-63
2023/05/19 01:23:30;;;;;;;0.00;0.00;;;9.80;99.90;;;;;;5092205;28;20534;-64
2023/05/19 01:26:24;;;;;;;0.00;0.00;;;9.70;99.90;;;;;;5090834;28;20234;-62
2023/05/19 01:29:08;;;;;;;0.05;0.05;;;9.60;99.90;;;;;;5092814;28;20184;-62
2023/05/19 01:31:36;;;;;;;0.00;0.00;;;9.60;99.90;;;;;;5092534;28;21002;-62
2023/05/19 01:34:03;;;;;;;0.00;0.00;;;9.60;99.90;;;;;;5092519;28;20192;-63
2023/05/19 01:36:32;;;;;;;0.00;0.00;;;9.60;99.90;;;;;;5092802;28;20669;-63
2023/05/19 01:38:59;;;;;;;0.00;0.00;;;9.60;99.90;;;;;;5092027;28;20225;-63
2023/05/19 01:41:27;;;;;;;0.00;0.00;;;9.60;99.90;;;;;;5092278;28;20230;-63
2023/05/19 01:43:53;;;;;;;0.00;0.00;;;9.60;99.90;;;;;;5092661;28;20267;-63
2023/05/19 01:46:20;;;;;;;0.00;0.00;;;9.50;99.90;;;;;;5092747;28;20638;-63
2023/05/19 01:48:47;;;;;;;0.00;0.00;;;9.50;99.90;;;;;;5092610;28;20187;-63
2023/05/19 01:51:12;;;;;;;0.47;0.47;;;9.50;99.90;;;;;;5091981;28;20176;-63
2023/05/19 01:53:38;;;;;;;0.00;0.00;;;9.50;99.90;;;;;;5091730;28;20249;-62
2023/05/19 01:56:04;;;;;;;0.00;0.00;;;9.50;99.90;;;;;;5092193;28;20187;-62
2023/05/19 01:58:46;;;;;;;0.00;0.00;;;9.50;99.90;;;;;;5092724;28;20585;-63
2023/05/19 02:01:46;;;;;;;0.00;0.00;;;9.50;99.90;;;;;;5092027;28;20582;-62
2023/05/19 02:04:31;;;;;;;0.00;0.00;;;9.50;99.90;;;;;;5091367;28;20180;-62
2023/05/19 02:07:12;;;;;;;0.00;0.00;;;9.50;99.90;;;;;;5091943;28;20725;-62
2023/05/19 02:09:51;;;;;;;0.00;0.00;;;9.40;99.90;;;;;;5091666;28;20198;-62
2023/05/19 02:12:27;;;;;;;0.00;0.00;;;9.40;99.90;;;;;;5092567;28;20191;-63
2023/05/19 02:15:01;;;;;;;0.00;0.00;;;9.40;99.90;;;;;;5091846;28;20249;-62
2023/05/19 02:17:31;;;;;;;0.10;0.10;;;9.40;99.90;;;;;;5090408;28;20185;-63
2023/05/19 02:19:57;;;;;;;0.00;0.00;;;9.40;99.90;;;;;;5091474;28;20586;-62
2023/05/19 02:22:23;;;;;;;0.00;0.00;;;9.40;99.90;;;;;;5092349;28;20187;-62
2023/05/19 02:24:50;;;;;;;0.00;0.00;;;9.40;99.90;;;;;;5090902;28;20217;-62
2023/05/19 02:27:16;;;;;;;0.00;0.00;;;9.40;99.90;;;;;;5091874;28;20243;-63
2023/05/19 02:29:41;;;;;;;0.00;0.00;;;9.40;99.90;;;;;;5091348;28;20586;-62
2023/05/19 02:32:07;;;;;;;0.00;0.00;;;9.40;99.90;;;;;;5090715;28;20259;-63
2023/05/19 02:34:32;;;;;;;0.00;0.00;;;9.40;99.90;;;;;;5089970;28;20214;-63
2023/05/19 02:36:58;;;;;;;0.00;0.00;;;9.40;99.90;;;;;;5090661;28;20191;-63
2023/05/19 02:39:23;;;;;;;0.00;0.00;;;9.40;99.90;;;;;;5090516;28;20188;-63
2023/05/19 02:41:49;;;;;;;0.00;0.00;;;9.40;99.90;;;;;;5091350;28;20221;-63
2023/05/19 02:44:15;;;;;;;0.00;0.00;;;9.30;99.90;;;;;;5091472;28;20233;-63
2023/05/19 02:46:40;;;;;;;0.00;0.00;;;9.30;99.90;;;;;;5091722;28;20261;-62
2023/05/19 02:49:06;;;;;;;0.00;0.00;;;9.30;99.90;;;;;;5091331;28;20532;-62
2023/05/19 02:51:31;;;;;;;0.00;0.00;;;9.40;99.90;;;;;;5088996;28;20184;-63
2023/05/19 02:53:57;;;;;;;0.00;0.00;;;9.40;99.90;;;;;;5091192;28;20188;-63
2023/05/19 02:56:22;;;;;;;0.00;0.00;;;9.30;99.90;;;;;;5091272;28;20176;-63
2023/05/19 02:58:48;;;;;;;0.00;0.00;;;9.30;99.90;;;;;;5091616;28;20222;-63
2023/05/19 03:01:14;;;;;;;0.00;0.00;;;9.30;99.90;;;;;;5091114;28;20892;-63
2023/05/19 03:03:40;;;;;;;0.10;0.10;;;9.30;99.90;;;;;;5090851;28;20229;-63
2023/05/19 03:06:07;;;;;;;0.00;0.00;;;9.30;99.90;;;;;;5090707;28;20204;-63
2023/05/19 03:08:33;;;;;;;0.00;0.00;;;9.30;99.90;;;;;;5091299;28;20237;-63
2023/05/19 03:10:59;;;;;;;0.00;0.00;;;9.40;99.90;;;;;;5090027;28;20172;-63
2023/05/19 03:13:25;;;;;;;0.00;0.00;;;9.30;99.90;;;;;;5090667;28;20180;-63
2023/05/19 03:15:50;;;;;;;0.00;0.00;;;9.40;99.90;;;;;;5090789;28;20187;-63
2023/05/19 03:18:16;;;;;;;0.00;0.00;;;9.40;99.90;;;;;;5090826;28;20172;-63
2023/05/19 03:20:43;;;;;;;0.00;0.00;;;9.30;99.90;;;;;;5090239;28;20211;-63
2023/05/19 03:23:09;;;;;;;0.00;0.00;;;9.30;99.90;;;;;;5090544;28;20188;-63
2023/05/19 03:25:35;;;;;;;0.00;0.00;;;9.30;99.90;;;;;;5089774;28;20234;-63
2023/05/19 03:28:00;;;;;;;0.00;0.00;;;9.30;99.90;;;;;;5090071;28;20221;-63
2023/05/19 03:30:26;;;;;;;0.00;0.00;;;9.30;99.90;;;;;;5090390;28;20535;-63
2023/05/19 03:32:52;;;;;;;0.00;0.00;;;9.30;99.90;;;;;;5090435;28;20184;-64
2023/05/19 03:35:17;;;;;;;0.00;0.00;;;9.30;99.90;;;;;;5089976;28;20585;-63
2023/05/19 03:37:43;;;;;;;0.00;0.00;;;9.30;99.90;;;;;;5090273;28;20205;-64
2023/05/19 03:40:09;;;;;;;0.00;0.00;;;9.30;99.90;;;;;;5089641;28;20729;-64
2023/05/19 03:42:35;;;;;;;0.20;0.20;;;9.30;99.90;;;;;;5090774;28;20175;-62
2023/05/19 03:45:01;;;;;;;0.35;0.35;;;9.30;99.90;;;;;;5087700;28;20658;-63
2023/05/19 03:47:26;;;;;;;0.00;0.00;;;9.30;99.90;;;;;;5094665;28;20219;-64
2023/05/19 03:49:52;;;;;;;0.10;0.10;;;9.20;99.90;;;;;;5093690;28;20184;-62
2023/05/19 03:52:17;;;;;;;0.00;0.00;;;9.20;99.90;;;;;;5092889;28;20188;-63
2023/05/19 03:54:43;;;;;;;0.00;0.00;;;9.20;99.90;;;;;;5093806;28;20521;-66
2023/05/19 03:57:10;;;;;;;0.00;0.00;;;9.20;99.90;;;;;;5094379;28;20275;-67
2023/05/19 03:59:36;;;;;;;0.00;0.00;;;9.20;99.90;;;;;;5094688;28;20207;-65
2023/05/19 04:02:02;;;;;;;0.10;0.10;;;9.20;99.90;;;;;;5094094;28;20172;-64
2023/05/19 04:04:27;;;;;;;0.00;0.00;;;9.20;99.90;;;;;;5094471;28;20176;-65
2023/05/19 04:06:53;;;;;;;0.00;0.00;;;9.20;99.90;;;;;;5093872;28;20238;-65
2023/05/19 04:09:18;;;;;;;0.00;0.00;;;9.20;99.90;;;;;;5094011;28;20600;-65
2023/05/19 04:11:44;;;;;;;0.00;0.00;;;9.30;99.90;;;;;;5094121;28;20180;-65
2023/05/19 04:14:10;;;;;;;0.00;0.00;;;9.30;99.90;;;;;;5094204;28;20208;-64
2023/05/19 04:16:36;;;;;;;0.00;0.00;;;9.30;99.90;;;;;;5093878;28;20226;-66
2023/05/19 04:19:01;;;;;;;0.00;0.00;;;9.30;99.90;;;;;;5094064;28;20208;-65
2023/05/19 04:21:27;;;;;;;0.10;0.10;;;9.30;99.90;;;;;;5092488;28;20176;-65
2023/05/19 04:23:52;;;;;;;0.00;0.00;;;9.40;99.90;;;;;;5093523;28;20176;-65
2023/05/19 04:26:20;;;;;;;0.00;0.00;;;9.40;99.90;;;;;;5093833;28;20211;-65
2023/05/19 04:28:47;;;;;;;0.00;0.00;;;9.50;99.90;;;;;;5093971;28;20203;-66
2023/05/19 04:31:13;;;;;;;0.00;0.00;;;9.50;99.90;;;;;;5093971;28;20187;-65
2023/05/19 04:33:39;;;;;;;0.00;0.00;;;9.50;99.90;;;;;;5094450;28;20184;-67
2023/05/19 04:36:10;;;;;;;0.00;0.00;;;9.50;99.90;;;;;;5075926;28;20180;-65
2023/05/19 04:38:36;;;;;;;0.00;0.00;;;9.60;99.90;;;;;;5094344;28;20641;-65
2023/05/19 04:41:10;;;;;;;0.10;0.10;;;9.60;99.90;;;;;;5094243;28;20176;-65
2023/05/19 04:43:40;;;;;;;0.00;0.00;;;9.70;99.90;;;;;;5094432;28;20194;-65
2023/05/19 04:46:06;;;;;;;0.10;0.10;;;9.80;99.90;;;;;;5094051;28;20701;-65
2023/05/19 04:48:32;;;;;;;0.00;0.00;;;9.80;99.90;;;;;;5093960;28;20285;-65
2023/05/19 04:51:00;;;;;;;0.00;0.00;;;9.90;99.90;;;;;;5092146;28;20661;-64
2023/05/19 04:53:28;;;;;;;0.20;0.20;;;10.00;99.90;;;;;;5092816;28;20198;-60
2023/05/19 04:55:57;;;;;;;0.10;0.10;;;10.00;99.90;;;;;;5092732;28;20176;-60
2023/05/19 04:58:26;;;;;;;0.00;0.00;;;10.10;99.90;;;;;;5093575;28;20203;-60
2023/05/19 05:00:54;;;;;;;0.10;0.10;;;10.20;99.90;;;;;;5093487;28;20164;-60
2023/05/19 05:03:23;;;;;;;0.00;0.00;;;10.20;99.90;;;;;;5093417;28;20177;-60
2023/05/19 05:05:48;;;;;;;0.00;0.00;;;10.20;99.90;;;;;;5092817;28;20211;-60
2023/05/19 05:08:20;;;;;;;0.00;0.00;;;10.20;99.90;;;;;;5125712;27;20184;-60
2023/05/19 05:10:46;;;;;;;0.00;0.00;;;10.30;99.90;;;;;;5092964;28;20214;-60
2023/05/19 05:13:12;;;;;;;0.00;0.00;;;10.30;99.90;;;;;;5092321;28;20264;-60
2023/05/19 05:15:38;;;;;;;0.00;0.00;;;10.40;99.90;;;;;;5093070;28;20191;-60
2023/05/19 05:18:03;;;;;;;0.00;0.00;;;10.60;99.90;;;;;;5093053;28;20168;-60
2023/05/19 05:20:29;;;;;;;0.00;0.00;;;10.90;99.90;;;;;;5093250;28;20215;-60
2023/05/19 05:22:56;;;;;;;0.00;0.00;;;11.30;99.90;;;;;;5092889;28;20172;-60
2023/05/19 05:25:22;;;;;;;0.00;0.00;;;11.80;99.90;;;;;;5093156;28;20314;-60
2023/05/19 05:27:48;;;;;;;0.00;0.00;;;12.30;99.90;;;;;;5093242;28;20621;-60
2023/05/19 05:30:14;;;;;;;0.00;0.00;;;12.90;99.40;;;;;;5092771;28;20211;-60
2023/05/19 05:32:39;;;;;;;0.00;0.00;;;13.30;98.20;;;;;;5093119;28;20255;-60
2023/05/19 05:35:06;;;;;;;0.00;0.00;;;13.70;97.20;;;;;;5092924;28;20236;-60
2023/05/19 05:37:31;;;;;;;0.00;0.00;;;14.10;96.50;;;;;;5074835;28;20543;-60
2023/05/19 05:39:57;;;;;;;0.00;0.00;;;14.70;95.80;;;;;;5092593;28;20251;-60
2023/05/19 05:42:22;;;;;;;0.00;0.00;;;15.10;94.20;;;;;;5092753;28;20186;-60
2023/05/19 05:44:48;;;;;;;0.00;0.00;;;15.50;93.50;;;;;;5092667;28;20258;-61
2023/05/19 05:47:14;;;;;;;0.00;0.00;;;15.90;92.50;;;;;;5092418;28;20254;-61
2023/05/19 05:49:40;;;;;;;0.00;0.00;;;15.90;90.80;;;;;;5092630;28;20176;-60
2023/05/19 05:52:08;;;;;;;0.00;0.00;;;15.60;90.60;;;;;;5092365;28;20176;-60
2023/05/19 05:54:34;;;;;;;0.00;0.00;;;15.50;90.60;;;;;;5092715;28;20180;-60
2023/05/19 05:57:01;;;;;;;0.00;0.00;;;15.60;90.60;;;;;;5092767;28;20176;-60
2023/05/19 05:59:26;;;;;;;0.00;0.00;;;15.80;90.70;;;;;;5092848;28;20172;-60
2023/05/19 06:01:52;;;;;;;0.00;0.00;;;16.10;89.80;;;;;;5092502;28;20665;-61
2023/05/19 06:04:19;;;;;;;0.00;0.00;;;16.40;89.00;;;;;;5092464;28;20592;-61
2023/05/19 06:06:45;;;;;;;0.00;0.00;;;16.50;86.80;;;;;;5092117;28;20562;-59
2023/05/19 06:09:11;;;;;;;0.00;0.00;;;16.40;86.00;;;;;;5092488;28;20184;-59
2023/05/19 06:11:36;;;;;;;0.00;0.00;;;16.30;86.00;;;;;;5092292;28;20176;-59
2023/05/19 06:14:03;;;;;;;0.00;0.00;;;16.40;86.10;;;;;;5092235;28;20183;-59
2023/05/19 06:16:28;;;;;;;0.00;0.00;;;16.80;84.40;;;;;;5092272;28;20640;-60
2023/05/19 06:18:54;;;;;;;0.00;0.00;;;17.10;83.90;;;;;;5073691;28;20176;-59
2023/05/19 06:21:20;;;;;;;0.00;0.00;;;17.50;83.10;;;;;;5092032;28;20180;-59
2023/05/19 06:23:46;;;;;;;0.00;0.00;;;18.10;82.20;;;;;;5091895;28;20168;-59
2023/05/19 06:26:11;;;;;;;0.00;0.00;;;18.70;79.50;;;;;;5091867;28;20208;-59
2023/05/19 06:28:37;;;;;;;0.00;0.00;;;19.00;76.30;;;;;;5092284;28;20194;-60
2023/05/19 06:31:02;;;;;;;0.00;0.00;;;19.40;76.20;;;;;;5091158;28;20651;-60
2023/05/19 06:33:28;;;;;;;0.00;0.00;;;20.00;74.30;;;;;;5092514;28;20180;-60
2023/05/19 06:35:53;;;;;;;0.00;0.00;;;20.40;71.40;;;;;;5092050;28;20219;-60
2023/05/19 06:38:19;;;;;;;0.00;0.00;;;20.70;70.00;;;;;;5092279;28;20173;-60
2023/05/19 06:40:44;;;;;;;0.00;0.00;;;21.00;68.00;;;;;;5091074;28;20638;-60
2023/05/19 06:43:10;;;;;;;0.00;0.00;;;21.10;65.80;;;;;;5092113;28;20179;-60
2023/05/19 06:45:36;;;;;;;0.00;0.00;;;21.30;65.70;;;;;;5091958;28;20255;-60
2023/05/19 06:48:02;;;;;;;0.00;0.00;;;21.50;65.10;;;;;;5092134;28;20175;-60
2023/05/19 06:50:27;;;;;;;0.00;0.00;;;21.40;64.20;;;;;;5092065;28;20533;-60
2023/05/19 06:52:53;;;;;;;0.00;0.00;;;21.40;63.60;;;;;;5092056;28;20561;-60
2023/05/19 06:55:18;;;;;;;0.00;0.00;;;21.30;62.80;;;;;;5092044;28;20168;-60
2023/05/19 06:57:44;;;;;;;0.00;0.00;;;21.00;62.70;;;;;;5092092;28;20175;-60
2023/05/19 07:00:11;;;;;;;0.00;0.00;;;20.70;61.80;;;;;;5092040;28;20508;-60
2023/05/19 07:02:37;;;;;;;0.00;0.00;;;20.60;62.20;;;;;;5092019;28;20191;-59
2023/05/19 07:05:03;;;;;;;0.00;0.00;;;20.40;61.60;;;;;;5091964;28;20271;-60
2023/05/19 07:07:28;;;;;;;0.00;0.00;;;20.30;61.90;;;;;;5091778;28;20306;-59
2023/05/19 07:09:54;;;;;;;0.00;0.00;;;20.20;61.40;;;;;;5091860;28;20305;-60
2023/05/19 07:12:19;;;;;;;0.00;0.00;;;20.10;61.70;;;;;;5091897;28;20667;-59
2023/05/19 07:14:45;;;;;;;0.00;0.00;;;20.00;62.50;;;;;;5091808;28;20308;-59
2023/05/19 07:17:11;;;;;;;0.00;0.00;;;19.90;62.60;;;;;;5091292;28;20220;-60
2023/05/19 07:19:37;;;;;;;0.00;0.00;;;19.70;63.00;;;;;;5091820;28;20206;-60
2023/05/19 07:22:02;;;;;;;0.00;0.00;;;19.90;63.20;;;;;;5091639;28;20203;-60
2023/05/19 07:24:29;;;;;;;0.00;0.00;;;19.90;62.00;;;;;;5091738;28;20251;-60
2023/05/19 07:26:54;;;;;;;0.00;0.00;;;20.00;62.50;;;;;;5091452;28;20624;-60
2023/05/19 07:29:20;;;;;;;0.00;0.00;;;20.30;63.70;;;;;;5091712;28;20180;-60
2023/05/19 07:31:45;;;;;;;0.00;0.00;;;21.00;64.10;;;;;;5091748;28;20638;-60
2023/05/19 07:34:11;;;;;;;0.00;0.00;;;21.70;60.70;;;;;;5091637;28;20275;-60
2023/05/19 07:36:36;;;;;;;0.00;0.00;;;22.10;60.40;;;;;;5091574;28;20187;-60
2023/05/19 07:39:02;;;;;;;0.00;0.00;;;22.20;58.90;;;;;;5091536;28;20221;-60
2023/05/19 07:41:28;;;;;;;0.00;0.00;;;22.40;59.40;;;;;;5091659;28;20180;-60
2023/05/19 07:43:53;;;;;;;0.00;0.00;;;22.40;57.50;;;;;;5091437;28;20180;-60
2023/05/19 07:46:19;;;;;;;0.00;0.00;;;22.60;58.30;;;;;;5091481;28;20207;-60
2023/05/19 07:48:44;;;;;;;0.00;0.00;;;22.50;57.80;;;;;;5091550;28;20241;-60
2023/05/19 07:51:11;;;;;;;0.10;0.05;;;22.70;58.10;;;;;;5091424;28;20187;-60
2023/05/19 07:53:37;;;;;;;0.00;0.00;;;22.80;57.30;;;;;;5091453;28;20174;-60
2023/05/19 07:56:03;;;;;;;0.00;0.00;;;22.80;57.90;;;;;;5091406;28;20163;-60
2023/05/19 07:58:28;;;;;;;0.00;0.00;;;23.10;57.40;;;;;;5091432;28;20176;-60
2023/05/19 08:00:57;;;;;;;0.00;0.00;;;23.20;57.40;;;;;;5091173;28;20176;-60
2023/05/19 08:03:23;;;;;;;0.00;0.00;;;23.50;56.30;;;;;;5091322;28;20527;-60
2023/05/19 08:05:48;;;;;;;0.00;0.00;;;23.80;55.80;;;;;;5091258;28;20212;-61
2023/05/19 08:08:18;;;;;;;0.00;0.00;;;23.70;55.50;;;;;;5091032;28;20175;-60
2023/05/19 08:10:44;;;;;;;0.00;0.00;;;23.50;55.50;;;;;;5091423;28;20179;-60
2023/05/19 08:13:09;;;;;;;0.00;0.00;;;23.20;55.60;;;;;;5091249;28;20187;-60
2023/05/19 08:15:35;;;;;;;0.00;0.00;;;22.90;55.40;;;;;;5091251;28;20194;-60
2023/05/19 08:18:02;;;;;;;0.00;0.00;;;22.60;55.60;;;;;;5091131;28;20172;-60
2023/05/19 08:20:27;;;;;;;0.00;0.00;;;22.20;55.70;;;;;;5091304;28;20229;-60
2023/05/19 08:22:53;;;;;;;0.00;0.00;;;21.80;56.30;;;;;;5091120;28;20184;-60
2023/05/19 08:25:19;;;;;;;0.00;0.00;;;21.40;57.90;;;;;;5091068;28;20243;-60
2023/05/19 08:27:44;;;;;;;0.05;0.05;;;21.40;57.80;;;;;;5091173;28;20240;-60
2023/05/19 08:30:11;;;;;;;0.00;0.00;;;21.30;57.10;;;;;;5094695;28;20200;-60
2023/05/19 08:32:36;;;;;;;0.00;0.00;;;21.30;58.30;;;;;;5094693;28;20259;-60
2023/05/19 08:35:02;;;;;;;0.00;0.00;;;21.40;58.20;;;;;;5094851;28;20215;-60
2023/05/19 08:37:28;;;;;;;0.00;0.00;;;21.60;58.60;;;;;;5094923;28;20196;-60
2023/05/19 08:39:54;;;;;;;0.00;0.00;;;21.70;58.20;;;;;;5094680;28;20219;-60
2023/05/19 08:42:19;;;;;;;0.00;0.00;;;21.80;59.00;;;;;;5094872;28;20179;-60
2023/05/19 08:44:45;;;;;;;0.00;0.00;;;21.80;57.90;;;;;;5094706;28;20658;-60
2023/05/19 08:47:12;;;;;;;0.00;0.00;;;21.80;58.50;;;;;;5094652;28;20211;-60
2023/05/19 08:49:44;;;;;;;0.00;0.00;;;22.10;59.20;;;;;;5094590;28;20176;-60
2023/05/19 08:52:31;;;;;;;0.00;0.00;;;22.10;57.00;;;;;;5094628;28;20180;-60
2023/05/19 08:55:03;;;;;;;0.00;0.00;;;21.90;57.80;;;;;;5094485;28;20165;-60
2023/05/19 08:57:29;;;;;;;0.00;0.00;;;21.60;58.30;;;;;;5094647;28;20267;-61
2023/05/19 08:59:56;;;;;;;0.00;0.00;;;21.40;58.20;;;;;;5094244;28;20176;-60
2023/05/19 09:02:22;;;;;;;0.00;0.00;;;21.10;57.80;;;;;;5094414;28;20187;-60
2023/05/19 09:04:48;;;;;;;0.00;0.00;;;20.70;57.90;;;;;;5094326;28;20278;-60
2023/05/19 09:07:14;;;;;;;0.00;0.00;;;20.30;58.10;;;;;;5093840;28;20303;-60
2023/05/19 09:09:42;;;;;;;0.00;0.00;;;19.90;58.90;;;;;;5094247;28;20251;-60
2023/05/19 09:12:12;;;;;;;0.00;0.00;;;19.60;60.30;;;;;;5094165;28;20176;-60
2023/05/19 09:14:37;;;;;;;0.00;0.00;;;19.40;60.90;;;;;;5094067;28;20203;-60
2023/05/19 09:17:03;;;;;;;0.00;0.00;;;19.10;62.40;;;;;;5094028;28;20698;-60
2023/05/19 09:19:29;;;;;;;0.00;0.00;;;18.90;62.90;;;;;;5094113;28;20225;-60
2023/05/19 09:21:59;;;;;;;0.13;0.13;;;18.80;63.30;;;;;;5093821;28;20184;-60
2023/05/19 09:24:26;;;;;;;0.00;0.00;;;18.70;64.60;;;;;;5093904;28;20284;-60
2023/05/19 09:26:55;;;;;;;0.00;0.00;;;18.60;64.40;;;;;;5093772;28;20730;-60
2023/05/19 09:29:21;;;;;;;0.00;0.00;;;18.50;64.80;;;;;;5093803;28;20203;-60
2023/05/19 09:31:50;;;;;;;0.00;0.00;;;18.50;65.50;;;;;;5093822;28;20610;-60
2023/05/19 09:34:16;;;;;;;0.00;0.00;;;18.60;66.20;;;;;;5093666;28;20217;-60
2023/05/19 09:36:42;;;;;;;0.00;0.00;;;18.70;66.50;;;;;;5093866;28;20188;-59
2023/05/19 09:39:15;;;;;;;0.00;0.00;;;18.80;66.00;;;;;;5092364;28;20507;-60
2023/05/19 09:41:41;;;;;;;0.00;0.00;;;18.80;65.50;;;;;;5093176;28;20169;-60
2023/05/19 09:44:11;;;;;;;0.00;0.00;;;18.80;65.10;;;;;;5093642;28;20179;-60
2023/05/19 09:46:37;;;;;;;0.00;0.00;;;18.80;65.60;;;;;;5093356;28;20207;-60
2023/05/19 09:49:09;;;;;;;0.00;0.00;;;18.80;65.70;;;;;;5093408;28;20222;-60
2023/05/19 09:51:40;;;;;;;0.00;0.00;;;18.90;65.20;;;;;;5093459;28;20263;-60
2023/05/19 09:54:08;;;;;;;0.00;0.00;;;18.90;66.20;;;;;;5093373;28;20234;-60
2023/05/19 09:56:34;;;;;;;0.00;0.00;;;19.00;65.90;;;;;;5093370;28;20187;-60
2023/05/19 09:59:03;;;;;;;0.00;0.00;;;19.10;66.30;;;;;;5093327;28;20188;-60
2023/05/19 10:01:32;;;;;;;0.00;0.00;;;19.20;65.90;;;;;;5093298;28;20175;-60
2023/05/19 10:03:59;;;;;;;0.00;0.00;;;19.10;65.10;;;;;;5093117;28;20587;-60
2023/05/19 10:06:25;;;;;;;0.00;0.00;;;19.00;65.70;;;;;;5089665;28;20204;-60
2023/05/19 10:08:53;;;;;;;0.00;0.00;;;19.00;65.80;;;;;;5093031;28;20187;-64
2023/05/19 10:11:21;;;;;;;0.00;0.00;;;19.00;66.30;;;;;;5093350;28;20310;-60
2023/05/19 10:13:50;;;;;;;0.00;0.00;;;19.00;65.80;;;;;;5093029;28;20659;-60
2023/05/19 10:16:17;;;;;;;0.00;0.00;;;19.10;66.90;;;;;;5092948;28;20188;-60
2023/05/19 10:18:43;;;;;;;0.00;0.00;;;19.20;66.40;;;;;;5092819;28;20184;-60
2023/05/19 10:21:09;;;;;;;0.00;0.00;;;19.20;65.80;;;;;;5092873;28;20180;-60
2023/05/19 10:23:35;;;;;;;0.00;0.00;;;19.20;66.10;;;;;;5092727;28;20275;-60
2023/05/19 10:26:03;;;;;;;0.00;0.00;;;19.40;66.80;;;;;;5092641;28;20306;-60
2023/05/19 10:28:41;;;;;;;0.00;0.00;;;19.40;65.50;;;;;;5092742;28;20172;-61
2023/05/19 10:31:11;;;;;;;0.00;0.00;;;19.40;65.50;;;;;;5091359;28;20172;-60
2023/05/19 10:33:55;;;;;;;0.00;0.00;;;19.30;65.20;;;;;;5091358;28;20211;-60
2023/05/19 10:36:34;;;;;;;0.00;0.00;;;19.30;66.00;;;;;;5092783;28;20220;-60
2023/05/19 10:39:12;;;;;;;0.00;0.00;;;19.20;66.20;;;;;;5092644;28;20175;-60
2023/05/19 10:41:52;;;;;;;0.00;0.00;;;19.20;65.50;;;;;;5092566;28;20254;-60
2023/05/19 10:44:27;;;;;;;0.00;0.00;;;19.10;65.60;;;;;;5092427;28;20183;-60
2023/05/19 10:46:53;;;;;;;0.00;0.00;;;19.10;66.60;;;;;;5092471;28;20207;-60
2023/05/19 10:49:22;;;;;;;0.00;0.00;;;19.10;67.00;;;;;;5092350;28;20653;-60
2023/05/19 10:51:48;;;;;;;0.00;0.00;;;19.10;67.50;;;;;;5090393;28;20643;-61
2023/05/19 10:54:16;;;;;;;0.00;0.00;;;19.20;68.10;;;;;;5092241;28;20195;-60
2023/05/19 10:56:47;;;;;;;0.00;0.00;;;19.30;68.00;;;;;;5092429;28;20196;-60
2023/05/19 10:59:33;;;;;;;0.00;0.00;;;19.50;67.10;;;;;;5091082;28;20171;-60
2023/05/19 11:02:03;;;;;;;0.00;0.00;;;19.70;67.10;;;;;;5092161;28;20176;-60
2023/05/19 11:05:06;;;;;;;0.03;0.03;;;19.80;66.70;;;;;;5092274;28;20176;-60
2023/05/19 11:07:32;;;;;;;0.00;0.00;;;19.80;66.20;;;;;;5078862;28;20756;-60
2023/05/19 11:09:57;;;;;;;0.00;0.00;;;19.70;65.40;;;;;;5091796;28;20251;-60
2023/05/19 11:12:23;;;;;;;0.05;0.05;;;19.90;66.20;;;;;;5092034;28;20180;-60
2023/05/19 11:14:53;;;;;;;0.00;0.00;;;20.20;65.80;;;;;;5091964;28;20243;-61
2023/05/19 11:17:22;;;;;;;0.00;0.00;;;20.30;64.20;;;;;;5092114;28;20172;-60
2023/05/19 11:19:55;;;;;;;0.00;0.00;;;20.60;64.90;;;;;;5091832;28;20188;-60
2023/05/19 11:22:27;;;;;;;0.00;0.00;;;20.40;63.40;;;;;;5091989;28;20178;-60
2023/05/19 11:24:56;;;;;;;0.00;0.00;;;20.40;63.90;;;;;;5091468;28;20285;-60
2023/05/19 11:27:30;;;;;;;0.00;0.00;;;20.40;64.70;;;;;;5091870;28;20212;-61
2023/05/19 11:30:17;;;;;;;0.00;0.00;;;20.50;64.80;;;;;;5091387;28;20203;-60
2023/05/19 11:32:46;;;;;;;0.00;0.00;;;20.50;64.80;;;;;;5091782;28;20172;-60
2023/05/19 11:35:13;;;;;;;0.00;0.00;;;20.30;63.80;;;;;;5091659;28;20704;-60
2023/05/19 11:37:41;;;;;;;0.00;0.00;;;20.40;64.70;;;;;;5091743;28;20214;-60
2023/05/19 11:40:08;;;;;;;0.00;0.00;;;20.40;64.40;;;;;;5091598;28;20180;-60
2023/05/19 11:42:34;;;;;;;0.00;0.00;;;20.30;64.40;;;;;;5091728;28;20172;-60
2023/05/19 11:45:01;;;;;;;0.00;0.00;;;20.20;63.40;;;;;;5091553;28;20180;-60
2023/05/19 11:47:27;;;;;;;0.00;0.00;;;20.00;63.10;;;;;;5091690;28;20216;-60
2023/05/19 11:49:55;;;;;;;0.00;0.00;;;19.80;64.00;;;;;;5091608;28;20560;-60
2023/05/19 11:52:22;;;;;;;0.00;0.00;;;19.70;64.80;;;;;;5091683;28;20204;-60
2023/05/19 11:54:48;;;;;;;0.00;0.00;;;19.50;65.40;;;;;;5091637;28;20206;-60
2023/05/19 11:57:13;;;;;;;0.00;0.00;;;19.30;65.40;;;;;;5091373;28;20228;-60
2023/05/19 11:59:44;;;;;;;0.00;0.00;;;19.00;65.60;;;;;;5091590;28;20180;-60
2023/05/19 12:02:26;;;;;;;0.00;0.00;;;18.90;66.70;;;;;;5091478;28;20663;-60
2023/05/19 12:04:52;;;;;;;0.00;0.00;;;18.90;67.60;;;;;;5094838;28;20176;-60
2023/05/19 12:07:21;;;;;;;0.00;0.00;;;18.80;67.80;;;;;;5095121;28;20215;-60
2023/05/19 12:09:48;;;;;;;0.00;0.00;;;18.70;68.30;;;;;;5095411;28;20176;-61
2023/05/19 12:12:20;;;;;;;0.00;0.00;;;18.60;67.70;;;;;;5095347;28;20710;-60
2023/05/19 12:14:49;;;;;;;0.00;0.00;;;18.60;68.50;;;;;;5095456;28;20282;-60
2023/05/19 12:17:16;;;;;;;0.00;0.00;;;18.60;69.10;;;;;;5095172;28;20176;-60
2023/05/19 12:19:43;;;;;;;0.00;0.00;;;18.50;69.00;;;;;;5095335;28;20168;-60
2023/05/19 12:22:09;;;;;;;0.00;0.00;;;18.50;69.00;;;;;;5095205;28;20656;-60
2023/05/19 12:24:36;;;;;;;0.00;0.00;;;18.50;69.70;;;;;;5095003;28;20272;-60
2023/05/19 12:27:22;;;;;;;0.00;0.00;;;18.40;68.90;;;;;;5094939;28;20577;-60
2023/05/19 12:29:56;;;;;;;0.00;0.00;;;18.40;68.70;;;;;;5094927;28;20180;-60
2023/05/19 12:32:25;;;;;;;0.00;0.00;;;18.40;69.30;;;;;;5095224;28;20180;-60
2023/05/19 12:34:52;;;;;;;0.00;0.00;;;18.40;68.90;;;;;;5094992;28;20168;-60
2023/05/19 12:37:18;;;;;;;0.00;0.00;;;18.30;69.10;;;;;;5094593;28;20526;-60
2023/05/19 12:39:44;;;;;;;0.00;0.00;;;18.30;69.60;;;;;;5094778;28;20647;-60
2023/05/19 12:42:11;;;;;;;0.00;0.00;;;18.20;69.60;;;;;;5094744;28;20271;-60
2023/05/19 12:44:45;;;;;;;0.00;0.00;;;18.20;70.90;;;;;;5094803;28;20187;-60
2023/05/19 12:47:12;;;;;;;0.10;0.10;;;18.10;70.50;;;;;;5094654;28;20218;-60
2023/05/19 12:49:55;;;;;;;0.00;0.00;;;18.00;70.40;;;;;;5094590;28;20627;-60
2023/05/19 12:52:22;;;;;;;0.00;0.00;;;17.80;70.20;;;;;;5094071;28;20183;-60
2023/05/19 12:54:58;;;;;;;0.00;0.00;;;17.70;70.40;;;;;;5093544;28;20574;-60